Time;durP1;ratioP1;P1;durP2;ratioP2;P2;SDS_P1;SDS_P2;PMS_P1;PMS_P2;Temp;Humidity;BMP_temperature;BMP_pressure;BME280_temperature;BME280_humidity;BME280_pressure;Samples;Min_cycle;Max_cycle;Signal;HPM_P1;HPM_P2
2023/05/04 00:02:19;;;;;;;;;11.25;9.25;;;;;5.09;100.00;99265.25;4964522;28;105135;-74
2023/05/04 00:05:13;;;;;;;;;7.00;7.00;;;;;5.11;100.00;99271.34;4963716;28;101721;-73
2023/05/04 00:07:58;;;;;;;;;7.00;6.50;;;;;5.06;100.00;99273.63;4964783;28;101595;-74
2023/05/04 00:10:55;;;;;;;;;10.25;9.00;;;;;4.97;100.00;99274.50;4961300;28;103039;-74
2023/05/04 00:13:41;;;;;;;;;9.00;8.00;;;;;4.90;100.00;99270.75;4966796;28;106717;-73
2023/05/04 00:16:25;;;;;;;;;8.25;7.00;;;;;4.85;100.00;99273.88;4969640;28;101810;-75
2023/05/04 00:18:53;;;;;;;;;11.25;9.50;;;;;4.75;100.00;99270.41;4961455;28;101805;-74
2023/05/04 00:21:19;;;;;;;;;15.75;15.00;;;;;4.72;100.00;99261.81;4951223;28;101588;-74
2023/05/04 00:23:46;;;;;;;;;13.50;12.00;;;;;4.69;100.00;99262.09;4968733;28;103390;-74
2023/05/04 00:26:13;;;;;;;;;16.00;12.00;;;;;4.65;100.00;99266.91;4963617;28;101493;-74
2023/05/04 00:28:40;;;;;;;;;15.25;13.25;;;;;4.62;100.00;99275.25;4959033;28;101687;-74
2023/05/04 00:31:07;;;;;;;;;14.00;11.50;;;;;4.55;100.00;99265.28;4963456;28;102700;-74
2023/05/04 00:33:35;;;;;;;;;11.50;8.00;;;;;4.58;100.00;99270.34;4961410;28;103297;-74
2023/05/04 00:36:03;;;;;;;;;16.25;13.75;;;;;4.52;100.00;99261.03;4961463;28;101580;-75
2023/05/04 00:38:30;;;;;;;;;13.50;12.00;;;;;4.51;100.00;99270.06;4957985;28;101616;-73
2023/05/04 00:40:57;;;;;;;;;11.25;8.00;;;;;4.44;100.00;99269.81;4962986;28;101558;-75
2023/05/04 00:43:25;;;;;;;;;12.00;11.25;;;;;4.41;100.00;99261.25;4966218;27;107780;-74
2023/05/04 00:45:52;;;;;;;;;9.25;7.25;;;;;4.40;100.00;99259.53;4965469;28;101796;-73
2023/05/04 00:48:19;;;;;;;;;5.75;3.50;;;;;4.25;100.00;99245.78;4970451;28;101701;-74
2023/05/04 00:50:46;;;;;;;;;6.25;3.00;;;;;4.31;100.00;99266.63;4969601;28;101830;-74
2023/05/04 00:53:13;;;;;;;;;5.50;4.00;;;;;4.29;100.00;99252.53;4954751;28;103628;-74
2023/05/04 00:55:40;;;;;;;;;6.25;5.00;;;;;4.23;100.00;99258.47;4967074;28;101981;-74
2023/05/04 00:58:10;;;;;;;;;9.25;7.00;;;;;4.11;100.00;99256.94;4964885;28;101942;-74
2023/05/04 01:00:37;;;;;;;;;5.75;5.50;;;;;4.07;100.00;99260.03;4958553;28;101604;-73
2023/05/04 01:03:04;;;;;;;;;5.00;3.00;;;;;4.00;100.00;99247.25;4970319;28;103406;-73
2023/05/04 01:05:55;;;;;;;;;11.75;10.25;;;;;3.84;100.00;99254.16;4967129;28;101879;-73
2023/05/04 01:08:39;;;;;;;;;12.00;11.00;;;;;3.77;100.00;99253.06;4962261;28;101804;-74
2023/05/04 01:11:46;;;;;;;;;11.50;9.00;;;;;3.68;100.00;99253.91;4960850;28;101694;-74
2023/05/04 01:14:35;;;;;;;;;14.25;11.00;;;;;3.66;100.00;99255.88;4961076;28;106827;-74
2023/05/04 01:17:29;;;;;;;;;7.25;7.00;;;;;3.35;100.00;99215.06;4955659;28;101639;-73
2023/05/04 01:20:01;;;;;;;;;10.00;8.00;;;;;3.63;100.00;99251.66;4959226;27;101709;-73
2023/05/04 01:22:28;;;;;;;;;11.50;9.25;;;;;3.58;100.00;99246.72;4959433;28;101999;-74
2023/05/04 01:24:56;;;;;;;;;10.00;8.00;;;;;3.60;100.00;99257.28;4958157;27;103271;-73
2023/05/04 01:27:35;;;;;;;;;10.00;7.00;;;;;3.59;100.00;99259.13;4955647;28;101764;-73
2023/05/04 01:30:13;;;;;;;;;12.50;7.75;;;;;3.55;100.00;99257.72;4963490;27;101808;-74
2023/05/04 01:32:41;;;;;;;;;10.25;6.00;;;;;3.50;100.00;99245.75;4971779;28;101578;-73
2023/05/04 01:35:10;;;;;;;;;14.75;12.25;;;;;3.44;100.00;99239.13;4958559;28;103373;-74
2023/05/04 01:37:38;;;;;;;;;20.00;16.00;;;;;3.27;100.00;99222.94;4962558;28;101658;-73
2023/05/04 01:40:06;;;;;;;;;21.00;19.00;;;;;3.39;100.00;99235.19;4959844;28;101941;-73
2023/05/04 01:42:33;;;;;;;;;20.00;17.25;;;;;3.35;100.00;99237.28;4956085;28;101598;-74
2023/05/04 01:45:00;;;;;;;;;15.25;12.50;;;;;3.11;100.00;99208.28;4961222;28;108044;-74
2023/05/04 01:47:28;;;;;;;;;16.75;15.50;;;;;3.36;100.00;99233.66;4965986;28;101508;-73
2023/05/04 01:49:55;;;;;;;;;18.50;14.75;;;;;3.33;100.00;99231.22;4961993;28;101847;-74
2023/05/04 01:52:22;;;;;;;;;15.00;14.75;;;;;3.31;100.00;99227.88;4964677;28;101840;-73
2023/05/04 01:54:49;;;;;;;;;13.75;12.75;;;;;3.05;100.00;99192.00;4959865;28;103670;-74
2023/05/04 01:57:16;;;;;;;;;15.00;12.00;;;;;3.29;100.00;99239.69;4972051;28;107033;-74
2023/05/04 01:59:43;;;;;;;;;13.25;12.25;;;;;3.26;100.00;99235.47;4965418;28;101629;-74
2023/05/04 02:02:10;;;;;;;;;14.25;11.25;;;;;3.24;100.00;99223.25;4966847;28;101880;-74
2023/05/04 02:04:37;;;;;;;;;11.00;11.00;;;;;3.22;100.00;99222.50;4969881;28;103245;-73
2023/05/04 02:07:04;;;;;;;;;9.00;8.25;;;;;3.24;100.00;99228.59;4960515;28;102068;-74
2023/05/04 02:09:31;;;;;;;;;11.00;9.50;;;;;3.22;100.00;99219.84;4962208;28;102994;-74
2023/05/04 02:11:58;;;;;;;;;6.50;5.00;;;;;2.91;100.00;99163.03;4967969;28;101987;-74
2023/05/04 02:14:25;;;;;;;;;5.25;4.00;;;;;3.21;100.00;99224.34;4962272;28;103359;-75
2023/05/04 02:16:52;;;;;;;;;10.00;7.00;;;;;3.19;100.00;99214.78;4963102;28;101686;-73
2023/05/04 02:19:19;;;;;;;;;11.50;9.00;;;;;3.05;100.00;99213.38;4963144;28;101662;-74
2023/05/04 02:21:46;;;;;;;;;12.50;9.50;;;;;3.14;100.00;99223.22;4964223;28;101534;-74
2023/05/04 02:24:13;;;;;;;;;11.25;10.00;;;;;3.14;100.00;99229.41;4968887;28;103313;-75
2023/05/04 02:26:40;;;;;;;;;10.50;9.75;;;;;3.10;100.00;99220.00;4963741;28;101786;-74
2023/05/04 02:29:07;;;;;;;;;11.25;9.25;;;;;3.08;100.00;99221.09;4971789;27;101660;-74
2023/05/04 02:31:34;;;;;;;;;10.75;9.00;;;;;3.07;100.00;99228.25;4971661;28;101848;-74
2023/05/04 02:34:01;;;;;;;;;9.00;8.50;;;;;3.03;100.00;99223.34;4969006;28;107873;-75
2023/05/04 02:36:29;;;;;;;;;9.00;7.75;;;;;3.00;100.00;99234.31;4960519;28;102830;-74
2023/05/04 02:38:57;;;;;;;;;10.75;9.50;;;;;2.93;100.00;99217.97;4964926;28;102350;-75
2023/05/04 02:41:25;;;;;;;;;15.75;14.25;;;;;2.90;100.00;99220.94;4964021;28;101363;-75
2023/05/04 02:43:52;;;;;;;;;13.00;11.25;;;;;2.89;100.00;99224.56;4962570;28;103500;-75
2023/05/04 02:46:19;;;;;;;;;14.00;12.75;;;;;2.88;100.00;99225.53;4971485;28;101890;-74
2023/05/04 02:48:46;;;;;;;;;11.50;10.25;;;;;2.92;100.00;99237.69;4965187;28;102660;-73
2023/05/04 02:51:13;;;;;;;;;5.50;3.50;;;;;2.92;100.00;99229.66;4964808;28;101971;-74
2023/05/04 02:53:40;;;;;;;;;7.50;6.00;;;;;2.92;100.00;99224.31;4964186;28;106959;-74
2023/05/04 02:56:07;;;;;;;;;11.25;9.25;;;;;2.89;100.00;99229.06;4965083;28;102077;-74
2023/05/04 02:58:34;;;;;;;;;9.75;7.25;;;;;2.89;100.00;99229.91;4968939;28;101700;-75
2023/05/04 03:01:01;;;;;;;;;11.25;10.00;;;;;2.87;100.00;99236.38;4966615;28;101683;-75
2023/05/04 03:03:28;;;;;;;;;11.00;9.50;;;;;2.85;100.00;99235.66;4957232;28;103407;-74
2023/05/04 03:05:55;;;;;;;;;10.00;6.25;;;;;2.85;100.00;99241.00;4958043;28;101500;-74
2023/05/04 03:08:22;;;;;;;;;7.00;6.00;;;;;2.82;100.00;99230.59;4955341;28;101927;-75
2023/05/04 03:10:49;;;;;;;;;10.75;10.00;;;;;2.86;100.00;99224.00;4964638;28;101570;-75
2023/05/04 03:13:16;;;;;;;;;5.25;5.00;;;;;2.82;100.00;99233.28;4963583;28;103311;-74
2023/05/04 03:15:43;;;;;;;;;9.50;9.00;;;;;2.76;100.00;99233.81;4966773;28;101802;-74
2023/05/04 03:18:10;;;;;;;;;9.25;6.50;;;;;2.78;100.00;99234.53;4966589;28;101500;-74
2023/05/04 03:20:37;;;;;;;;;9.00;9.00;;;;;2.69;100.00;99234.38;4957430;28;101632;-74
2023/05/04 03:23:04;;;;;;;;;12.00;10.75;;;;;2.61;100.00;99233.38;4963566;28;102643;-74
2023/05/04 03:25:31;;;;;;;;;16.50;14.75;;;;;2.50;100.00;99228.13;4963601;28;101484;-75
2023/05/04 03:27:58;;;;;;;;;19.50;13.50;;;;;2.51;100.00;99228.00;4955757;28;101806;-74
2023/05/04 03:30:25;;;;;;;;;16.50;14.00;;;;;2.52;100.00;99227.00;4962738;28;101598;-74
2023/05/04 03:32:52;;;;;;;;;14.25;12.25;;;;;2.52;100.00;99232.31;4964811;28;103500;-75
2023/05/04 03:35:19;;;;;;;;;9.50;8.00;;;;;2.50;100.00;99226.28;4968107;28;101910;-75
2023/05/04 03:37:50;;;;;;;;;11.25;11.25;;;;;2.53;100.00;99234.03;4968801;28;101506;-73
2023/05/04 03:40:23;;;;;;;;;15.75;13.50;;;;;2.60;100.00;99245.88;4966980;28;102697;-75
2023/05/04 03:42:51;;;;;;;;;11.00;9.50;;;;;2.67;100.00;99235.47;4961275;28;103432;-74
2023/05/04 03:45:18;;;;;;;;;9.50;7.00;;;;;2.70;100.00;99230.69;4962858;28;102072;-75
2023/05/04 03:47:45;;;;;;;;;9.25;9.00;;;;;2.75;100.00;99232.16;4955714;28;101620;-74
2023/05/04 03:50:12;;;;;;;;;13.00;9.75;;;;;2.76;100.00;99232.00;4969897;28;102512;-75
2023/05/04 03:52:39;;;;;;;;;15.00;14.00;;;;;2.76;100.00;99231.16;4965728;28;103368;-73
2023/05/04 03:55:06;;;;;;;;;16.50;13.00;;;;;2.56;100.00;99212.41;4963346;28;101619;-72
2023/05/04 03:57:33;;;;;;;;;22.50;16.25;;;;;2.75;100.00;99242.84;4958203;28;101855;-74
2023/05/04 04:00:00;;;;;;;;;16.75;14.50;;;;;2.79;100.00;99242.44;4958104;28;101858;-74
2023/05/04 04:02:28;;;;;;;;;17.75;15.00;;;;;2.58;99.69;99209.59;4953752;28;103345;-74
2023/05/04 04:04:55;;;;;;;;;15.75;14.00;;;;;2.82;99.86;99238.63;4964460;28;101908;-75
2023/05/04 04:07:22;;;;;;;;;19.50;18.00;;;;;2.87;99.77;99241.72;4957010;28;106524;-74
2023/05/04 04:09:49;;;;;;;;;19.00;16.00;;;;;2.94;99.12;99238.38;4964611;28;101681;-74
2023/05/04 04:12:17;;;;;;;;;19.67;19.00;;;;;2.98;99.85;99244.28;4956141;28;103337;-73
2023/05/04 04:14:44;;;;;;;;;15.50;12.50;;;;;3.06;100.00;99242.59;4962169;28;101659;-75
2023/05/04 04:17:11;;;;;;;;;16.00;14.67;;;;;3.10;98.46;99237.84;4963585;28;101680;-73
2023/05/04 04:19:38;;;;;;;;;18.00;16.75;;;;;3.12;99.66;99228.69;4964739;28;101560;-74
2023/05/04 04:22:05;;;;;;;;;13.50;12.25;;;;;3.29;99.49;99234.34;4965033;28;103432;-75
2023/05/04 04:24:32;;;;;;;;;15.00;11.00;;;;;3.08;99.15;99208.59;4962097;28;101980;-75
2023/05/04 04:26:59;;;;;;;;;13.25;11.50;;;;;3.40;98.12;99235.06;4978136;28;101719;-75
2023/05/04 04:29:26;;;;;;;;;20.50;15.75;;;;;3.47;97.98;99248.69;4958888;28;104063;-75
2023/05/04 04:31:53;;;;;;;;;11.50;10.25;;;;;3.55;98.47;99249.69;4966173;28;103364;-75
2023/05/04 04:34:21;;;;;;;;;16.75;14.75;;;;;3.63;98.45;99240.13;4954238;28;102001;-75
2023/05/04 04:36:48;;;;;;;;;19.50;16.50;;;;;3.71;96.37;99248.25;4968252;28;101697;-74
2023/05/04 04:39:15;;;;;;;;;21.33;17.00;;;;;3.69;95.09;99231.53;4959238;28;101438;-76
2023/05/04 04:41:42;;;;;;;;;21.00;19.75;;;;;3.86;95.31;99241.50;4960713;28;103499;-74
2023/05/04 04:44:10;;;;;;;;;21.50;20.75;;;;;4.61;94.14;99249.44;4966798;28;101846;-75
2023/05/04 04:46:37;;;;;;;;;23.75;17.75;;;;;5.13;87.82;99191.63;4966439;28;101658;-75
2023/05/04 04:49:04;;;;;;;;;21.50;19.00;;;;;6.34;84.46;99258.06;4963415;28;101774;-75
2023/05/04 04:51:32;;;;;;;;;22.00;18.50;;;;;7.29;80.41;99242.53;4955646;28;108248;-74
2023/05/04 04:53:59;;;;;;;;;12.75;12.75;;;;;7.87;76.74;99245.13;4963103;28;101893;-76
2023/05/04 04:56:26;;;;;;;;;12.50;9.25;;;;;8.51;72.24;99255.00;4968960;28;101990;-74
2023/05/04 04:58:52;;;;;;;;;13.00;10.75;;;;;9.11;73.74;99245.53;4967171;28;101547;-75
2023/05/04 05:01:19;;;;;;;;;15.75;14.00;;;;;9.85;69.09;99240.34;4964420;28;103554;-75
2023/05/04 05:03:47;;;;;;;;;15.00;12.00;;;;;10.16;66.18;99242.97;4961879;28;101964;-75
2023/05/04 05:06:15;;;;;;;;;12.50;8.75;;;;;10.26;63.95;99242.72;4960819;28;103083;-76
2023/05/04 05:08:42;;;;;;;;;10.00;9.75;;;;;10.21;61.70;99240.56;4968092;28;102399;-74
2023/05/04 05:11:10;;;;;;;;;11.00;9.25;;;;;10.27;63.55;99241.69;4964398;28;103351;-74
2023/05/04 05:13:37;;;;;;;;;10.50;9.00;;;;;10.30;63.07;99238.63;4958980;28;101605;-75
2023/05/04 05:16:04;;;;;;;;;9.25;7.00;;;;;10.60;61.80;99243.03;4967548;28;101464;-75
2023/05/04 05:18:31;;;;;;;;;11.50;9.25;;;;;11.18;66.29;99238.63;4967364;28;101536;-76
2023/05/04 05:20:59;;;;;;;;;7.75;7.00;;;;;11.43;59.01;99239.97;4971233;28;102567;-75
2023/05/04 05:23:26;;;;;;;;;3.50;3.00;;;;;11.68;57.42;99239.59;4968746;28;101579;-79
2023/05/04 05:25:54;;;;;;;;;7.00;6.00;;;;;11.85;57.78;99246.47;4960956;28;101614;-79
2023/05/04 05:28:21;;;;;;;;;9.25;7.75;;;;;12.29;57.47;99244.38;4969655;28;102431;-79
2023/05/04 05:30:50;;;;;;;;;6.00;6.00;;;;;12.61;57.89;99242.13;4963358;28;104344;-78
2023/05/04 05:33:18;;;;;;;;;6.75;6.00;;;;;12.69;54.66;99244.69;4966758;28;102269;-78
2023/05/04 05:35:45;;;;;;;;;7.00;7.00;;;;;13.12;53.98;99248.09;4967343;28;101861;-79
2023/05/04 05:38:11;;;;;;;;;6.00;6.00;;;;;13.08;54.84;99249.50;4975577;28;101489;-80
2023/05/04 05:40:38;;;;;;;;;6.00;6.00;;;;;12.88;52.53;99132.66;4968800;28;107937;-79
2023/05/04 05:43:05;;;;;;;;;9.00;7.00;;;;;14.00;53.59;99247.97;4971884;28;101793;-78
2023/05/04 05:45:32;;;;;;;;;5.00;5.00;;;;;13.97;48.58;99245.63;4967643;28;102498;-79
2023/05/04 05:47:59;;;;;;;;;9.00;8.00;;;;;14.29;55.42;99244.84;4969280;28;102676;-79
2023/05/04 05:50:26;;;;;;;;;7.33;7.00;;;;;14.90;51.81;99228.28;4961965;28;103294;-80
2023/05/04 05:52:53;;;;;;;;;7.00;7.00;;;;;14.71;50.37;99248.19;4958286;28;101716;-79
2023/05/04 05:55:20;;;;;;;;;7.00;6.67;;;;;14.68;46.98;99243.16;4958040;28;101517;-80
2023/05/04 05:57:47;;;;;;;;;10.25;9.50;;;;;15.06;47.50;99246.00;4960335;28;101516;-78
2023/05/04 06:00:15;;;;;;;;;7.67;7.00;;;;;15.19;45.91;99241.38;4970144;28;103337;-79
2023/05/04 06:02:42;;;;;;;;;7.00;7.00;;;;;15.40;46.16;99240.22;4971696;28;101536;-79
2023/05/04 06:05:09;;;;;;;;;7.00;6.33;;;;;15.76;44.02;99236.09;4973233;28;101639;-78
2023/05/04 06:07:36;;;;;;;;;5.33;5.00;;;;;15.44;45.74;99240.66;4959350;28;101966;-80
2023/05/04 06:10:04;;;;;;;;;5.67;5.00;;;;;15.71;45.93;99250.41;4963795;28;103340;-80
2023/05/04 06:12:31;;;;;;;;;6.33;5.67;;;;;15.56;47.95;99241.66;4964762;28;101600;-78
2023/05/04 06:14:58;;;;;;;;;7.67;6.67;;;;;15.94;43.10;99253.38;4969123;28;101874;-78
2023/05/04 06:17:25;;;;;;;;;6.67;6.67;;;;;15.71;43.63;99249.56;4964533;28;101815;-80
2023/05/04 06:19:52;;;;;;;;;7.33;6.00;;;;;15.43;45.00;99247.97;4963287;28;103556;-80
2023/05/04 06:22:19;;;;;;;;;6.00;6.00;;;;;14.93;48.55;99252.34;4967966;28;101332;-79
2023/05/04 06:24:46;;;;;;;;;6.67;5.00;;;;;14.90;49.06;99241.03;4968876;28;101375;-79
2023/05/04 06:27:13;;;;;;;;;7.33;7.33;;;;;14.99;45.66;99247.94;4964021;28;101574;-78
2023/05/04 06:29:40;;;;;;;;;7.00;6.00;;;;;15.59;47.26;99246.66;4970431;28;103377;-79
2023/05/04 06:32:08;;;;;;;;;6.67;6.67;;;;;16.20;45.14;99246.09;4966241;28;101500;-79
2023/05/04 06:34:35;;;;;;;;;5.67;5.67;;;;;16.40;43.54;99244.84;4964391;28;101701;-77
2023/05/04 06:37:02;;;;;;;;;6.67;6.33;;;;;16.20;45.42;99224.25;4964900;28;103207;-80
2023/05/04 06:39:30;;;;;;;;;7.00;7.00;;;;;15.56;46.04;99245.22;4968702;28;103325;-80
2023/05/04 06:41:57;;;;;;;;;10.00;9.00;;;;;15.32;47.25;99245.06;4968031;27;102031;-79
2023/05/04 06:44:24;;;;;;;;;9.67;8.67;;;;;14.95;48.03;99244.78;4969125;28;101526;-79
2023/05/04 06:46:51;;;;;;;;;5.00;5.00;;;;;14.69;48.20;99253.84;4960385;28;101907;-77
2023/05/04 06:49:18;;;;;;;;;5.00;5.00;;;;;15.62;48.26;99235.34;4967750;28;104644;-79
2023/05/04 06:51:45;;;;;;;;;5.33;5.00;;;;;16.22;42.83;99239.34;4963513;28;101586;-78
2023/05/04 06:54:12;;;;;;;;;4.33;4.33;;;;;16.68;45.14;99225.31;4969605;28;101477;-80
2023/05/04 06:56:39;;;;;;;;;6.67;6.00;;;;;16.68;45.83;99238.13;4965444;28;101924;-80
2023/05/04 06:59:08;;;;;;;;;6.00;5.00;;;;;16.43;42.31;99232.69;4964635;28;103491;-80
2023/05/04 07:01:36;;;;;;;;;5.33;5.00;;;;;16.34;44.07;99234.00;4984371;27;101572;-78
2023/05/04 07:04:03;;;;;;;;;3.67;3.33;;;;;16.12;42.64;99235.44;4971154;28;101969;-78
2023/05/04 07:06:31;;;;;;;;;3.00;3.00;;;;;16.64;41.40;99234.19;4956443;28;101505;-77
2023/05/04 07:08:58;;;;;;;;;3.00;3.00;;;;;16.60;38.77;99217.44;4962912;28;103527;-79
2023/05/04 07:11:26;;;;;;;;;5.00;4.67;;;;;16.87;41.26;99235.22;4970027;28;101561;-78
2023/05/04 07:13:54;;;;;;;;;3.00;2.00;;;;;17.11;40.45;99233.47;4964678;28;101697;-79
2023/05/04 07:16:21;;;;;;;;;2.00;2.00;;;;;16.81;39.99;99238.00;4971707;28;101680;-80
2023/05/04 07:18:48;;;;;;;;;2.00;2.00;;;;;16.85;39.22;99229.13;4980363;28;103539;-80
2023/05/04 07:21:15;;;;;;;;;2.67;2.67;;;;;16.20;40.53;99232.44;4965132;28;101579;-78
2023/05/04 07:23:54;;;;;;;;;1.67;1.67;;;;;16.30;42.63;99230.88;4960808;28;101566;-79
2023/05/04 07:26:22;;;;;;;;;2.33;2.00;;;;;16.28;41.85;99234.91;4963167;28;102573;-79
2023/05/04 07:28:49;;;;;;;;;3.00;3.00;;;;;15.38;43.03;99231.44;4967502;27;103466;-79
2023/05/04 07:31:16;;;;;;;;;4.00;4.00;;;;;14.74;41.63;99235.00;4953629;28;102268;-78
2023/05/04 07:33:43;;;;;;;;;5.00;4.00;;;;;14.63;45.55;99240.25;4956540;28;101771;-73
2023/05/04 07:36:10;;;;;;;;;2.00;2.00;;;;;15.10;45.11;99248.09;4971162;28;101783;-78
2023/05/04 07:38:37;;;;;;;;;4.67;4.00;;;;;14.32;42.47;99235.41;4953374;28;103455;-80
2023/05/04 07:41:04;;;;;;;;;4.00;3.00;;;;;15.00;45.15;99230.53;4965563;28;101533;-79
2023/05/04 07:43:31;;;;;;;;;2.00;2.00;;;;;14.95;45.58;99227.63;4963711;28;101739;-77
2023/05/04 07:45:57;;;;;;;;;4.00;3.00;;;;;15.55;45.97;99239.97;4966096;28;101925;-78
2023/05/04 07:48:25;;;;;;;;;3.00;3.00;;;;;15.73;43.62;99240.09;4995005;28;104713;-78
2023/05/04 07:50:52;;;;;;;;;3.00;2.33;;;;;15.34;45.61;99243.00;4961981;28;101384;-79
2023/05/04 07:53:20;;;;;;;;;6.25;5.25;;;;;15.27;42.80;99237.56;4973938;28;101609;-78
2023/05/04 07:55:47;;;;;;;;;6.25;4.50;;;;;14.83;43.32;99237.47;4962335;28;101824;-79
2023/05/04 07:58:15;;;;;;;;;4.00;4.00;;;;;14.92;42.71;99228.03;4964182;28;103360;-75
2023/05/04 08:00:42;;;;;;;;;4.67;4.00;;;;;14.83;41.84;99241.03;4966462;28;101769;-79
2023/05/04 08:03:09;;;;;;;;;4.00;4.00;;;;;14.44;42.16;99246.53;4969059;28;101522;-78
2023/05/04 08:05:36;;;;;;;;;5.00;4.50;;;;;14.38;42.10;99245.50;4962463;28;101940;-77
2023/05/04 08:08:03;;;;;;;;;5.00;4.00;;;;;14.79;47.66;99234.34;4961983;28;103392;-78
2023/05/04 08:10:34;;;;;;;;;3.00;3.00;;;;;15.31;42.83;99240.72;4958430;28;101610;-80
2023/05/04 08:13:01;;;;;;;;;2.50;2.50;;;;;15.66;43.63;99233.84;4961092;28;101867;-78
2023/05/04 08:15:28;;;;;;;;;4.00;4.00;;;;;15.81;43.66;99234.38;4958929;28;101624;-78
2023/05/04 08:17:55;;;;;;;;;5.50;5.50;;;;;15.13;41.29;99235.91;4966003;28;103360;-78
2023/05/04 08:20:22;;;;;;;;;4.25;4.00;;;;;15.11;44.02;99232.59;4960882;28;101688;-77
2023/05/04 08:22:49;;;;;;;;;3.50;3.50;;;;;14.99;44.37;99228.88;4960635;28;102820;-77
2023/05/04 08:25:16;;;;;;;;;7.00;5.25;;;;;15.01;41.46;99210.41;4966590;28;101589;-77
2023/05/04 08:27:44;;;;;;;;;5.00;5.00;;;;;14.96;47.33;99237.44;4958416;28;103397;-75
2023/05/04 08:30:12;;;;;;;;;3.25;3.25;;;;;15.25;43.41;99244.28;4961927;28;101822;-77
2023/05/04 08:32:39;;;;;;;;;3.00;3.00;;;;;15.36;45.75;99229.97;4964899;28;101592;-79
2023/05/04 08:35:06;;;;;;;;;6.25;5.00;;;;;15.12;41.86;99235.13;4959966;28;101653;-77
2023/05/04 08:37:33;;;;;;;;;5.00;4.00;;;;;15.56;43.19;99239.78;4958708;28;103438;-78
2023/05/04 08:40:00;;;;;;;;;4.67;4.67;;;;;15.59;44.30;99235.75;4967111;28;101383;-79
2023/05/04 08:42:32;;;;;;;;;3.50;3.50;;;;;15.65;42.45;99234.91;4962805;28;106071;-79
2023/05/04 08:45:00;;;;;;;;;1.00;1.00;;;;;16.03;44.37;99249.34;4965301;28;101910;-78
2023/05/04 08:47:27;;;;;;;;;4.00;4.00;;;;;15.90;43.32;99233.06;4966309;28;103410;-78
2023/05/04 08:49:57;;;;;;;;;5.75;5.50;;;;;15.54;43.59;99208.31;4967423;28;101832;-77
2023/05/04 08:52:26;;;;;;;;;6.00;5.00;;;;;16.03;44.25;99232.97;4959122;28;101826;-78
2023/05/04 08:54:54;;;;;;;;;3.00;3.00;;;;;16.47;42.82;99239.34;4956354;28;104362;-77
2023/05/04 08:57:23;;;;;;;;;3.00;3.00;;;;;16.37;41.59;99222.63;4964476;28;103632;-77
2023/05/04 08:59:54;;;;;;;;;3.00;3.00;;;;;16.39;44.86;99232.25;4973650;28;102291;-77
2023/05/04 09:02:23;;;;;;;;;3.00;3.00;;;;;16.65;43.81;99231.25;4973168;28;101954;-76
2023/05/04 09:04:51;;;;;;;;;4.00;3.67;;;;;16.34;41.53;99226.66;4968088;27;101512;-77
2023/05/04 09:07:19;;;;;;;;;4.67;4.00;;;;;16.22;39.80;99233.03;4966104;28;104229;-77
2023/05/04 09:09:50;;;;;;;;;3.00;3.00;;;;;15.90;41.41;99203.06;4962787;28;101532;-78
2023/05/04 09:12:18;;;;;;;;;2.00;2.00;;;;;16.32;40.72;99231.50;4961476;28;101681;-77
2023/05/04 09:14:45;;;;;;;;;2.00;2.00;;;;;16.33;38.17;99235.06;4970774;28;101544;-76
2023/05/04 09:17:16;;;;;;;;;3.00;2.00;;;;;15.40;40.09;99169.38;4974344;28;103495;-78
2023/05/04 09:19:43;;;;;;;;;2.00;2.00;;;;;16.07;40.83;99223.28;4955825;28;101809;-72
2023/05/04 09:22:19;;;;;;;;;2.00;2.00;;;;;16.09;40.20;99228.53;4971454;28;101788;-77
2023/05/04 09:24:46;;;;;;;;;3.00;3.00;;;;;15.67;41.96;99221.06;4971937;28;101892;-76
2023/05/04 09:27:16;;;;;;;;;4.67;4.00;;;;;15.39;41.11;99216.78;4963556;28;103775;-76
2023/05/04 09:29:52;;;;;;;;;4.00;3.50;;;;;15.61;39.10;99217.31;4966684;28;102865;-76
2023/05/04 09:32:19;;;;;;;;;3.00;3.00;;;;;15.87;41.40;99219.88;4969821;28;101646;-77
2023/05/04 09:34:51;;;;;;;;;4.00;4.00;;;;;15.71;41.46;99173.22;4968623;28;101780;-77
2023/05/04 09:37:19;;;;;;;;;1.00;1.00;;;;;16.42;45.14;99212.72;4956262;28;103344;-77
2023/05/04 09:39:59;;;;;;;;;2.00;2.00;;;;;16.57;41.20;99217.00;4968243;28;101776;-77
2023/05/04 09:42:27;;;;;;;;;3.00;2.00;;;;;16.81;41.89;99213.44;4960494;28;101678;-78
2023/05/04 09:45:02;;;;;;;;;3.00;2.00;;;;;16.74;40.36;99208.03;4972519;28;101623;-78
2023/05/04 09:47:32;;;;;;;;;4.00;3.00;;;;;16.85;45.39;99210.00;4967563;28;103342;-77
2023/05/04 09:50:21;;;;;;;;;6.33;6.33;;;;;16.18;39.40;99210.00;4963233;28;101628;-76
2023/05/04 09:52:49;;;;;;;;;4.33;3.00;;;;;16.48;41.36;99208.25;4968581;28;101663;-77
2023/05/04 09:55:19;;;;;;;;;3.00;3.00;;;;;16.57;40.80;99206.09;4970896;28;101925;-78
2023/05/04 09:57:49;;;;;;;;;3.33;3.33;;;;;16.67;36.59;99199.06;4968953;28;103549;-77
2023/05/04 10:00:17;;;;;;;;;2.00;2.00;;;;;16.57;37.25;99206.09;4957632;28;101564;-76
2023/05/04 10:02:46;;;;;;;;;4.00;4.00;;;;;16.55;40.45;99159.06;4964546;28;101710;-78
2023/05/04 10:05:17;;;;;;;;;2.00;2.00;;;;;16.68;39.11;99199.91;4965139;28;101716;-77
2023/05/04 10:07:45;;;;;;;;;3.33;3.33;;;;;16.69;40.75;99194.22;4955289;28;109200;-76
2023/05/04 10:10:14;;;;;;;;;3.00;3.00;;;;;16.72;42.90;99190.19;4973276;28;101798;-77
2023/05/04 10:12:43;;;;;;;;;4.00;4.00;;;;;16.79;39.27;99194.56;4969860;28;101503;-78
2023/05/04 10:15:11;;;;;;;;;3.67;2.33;;;;;16.99;39.89;99185.28;4965480;28;101812;-77
2023/05/04 10:18:00;;;;;;;;;3.33;3.33;;;;;16.86;38.62;99183.53;4963071;28;107741;-76
2023/05/04 10:20:55;;;;;;;;;2.67;2.00;;;;;16.65;39.10;99181.25;4954617;28;101583;-76
2023/05/04 10:23:43;;;;;;;;;4.67;4.33;;;;;16.63;39.03;99180.63;4963802;28;101982;-77
2023/05/04 10:26:46;;;;;;;;;4.00;3.00;;;;;16.83;40.08;99173.91;4966489;28;101958;-79
2023/05/04 10:29:33;;;;;;;;;2.33;2.33;;;;;17.05;38.67;99165.25;4949974;28;107879;-75
2023/05/04 10:32:01;;;;;;;;;4.00;4.00;;;;;16.41;38.43;99147.44;4965259;28;101697;-76
2023/05/04 10:34:30;;;;;;;;;4.00;4.00;;;;;16.77;40.65;99152.13;4963152;28;101576;-77
2023/05/04 10:36:59;;;;;;;;;4.00;3.00;;;;;16.90;39.56;99163.72;4970676;28;101540;-77
2023/05/04 10:39:32;;;;;;;;;4.00;4.00;;;;;17.06;43.44;99150.53;4964040;28;102971;-77
2023/05/04 10:42:03;;;;;;;;;5.67;5.00;;;;;16.89;38.96;99158.50;4980927;27;101569;-77
2023/05/04 10:44:32;;;;;;;;;3.00;3.00;;;;;16.75;37.67;99149.59;4966173;28;102231;-77
2023/05/04 10:47:07;;;;;;;;;3.00;2.67;;;;;16.73;37.85;99142.72;4969113;28;101532;-77
2023/05/04 10:49:34;;;;;;;;;2.33;2.33;;;;;17.02;39.36;99154.78;4965227;28;103350;-76
2023/05/04 10:52:19;;;;;;;;;4.33;3.33;;;;;17.14;38.47;99147.47;4966906;28;101874;-77
2023/05/04 10:55:02;;;;;;;;;2.00;2.00;;;;;17.10;38.33;99147.13;4967991;28;101519;-77
2023/05/04 10:57:30;;;;;;;;;2.33;2.00;;;;;17.32;37.12;99151.03;4957359;28;101634;-78
2023/05/04 10:59:57;;;;;;;;;3.00;2.33;;;;;17.44;39.55;99145.59;4962854;28;103332;-76
2023/05/04 11:02:26;;;;;;;;;3.00;2.00;;;;;17.47;39.95;99133.38;4965006;28;101670;-78
2023/05/04 11:05:04;;;;;;;;;2.67;2.33;;;;;17.39;40.69;99138.09;4956610;28;101485;-76
2023/05/04 11:07:38;;;;;;;;;5.00;3.33;;;;;17.24;39.86;99134.13;4961053;28;101516;-77
2023/05/04 11:10:08;;;;;;;;;2.00;2.00;;;;;17.60;37.98;99131.31;4962610;28;103490;-76
2023/05/04 11:12:36;;;;;;;;;4.00;4.00;;;;;17.45;38.87;99133.59;4959507;28;101588;-76
2023/05/04 11:15:12;;;;;;;;;4.00;3.00;;;;;17.15;40.10;99128.13;4967060;28;101804;-76
2023/05/04 11:17:47;;;;;;;;;3.33;3.33;;;;;17.17;38.25;99131.44;4968533;28;101958;-77
2023/05/04 11:20:22;;;;;;;;;3.00;3.00;;;;;17.10;38.15;99091.63;4958345;28;107959;-76
2023/05/04 11:22:49;;;;;;;;;6.33;6.00;;;;;17.26;41.25;99123.75;4970259;28;101815;-77
2023/05/04 11:25:25;;;;;;;;;3.00;2.00;;;;;17.35;37.16;99117.75;4963646;27;101483;-75
2023/05/04 11:27:52;;;;;;;;;2.00;2.00;;;;;17.52;41.67;99131.59;4969137;28;101745;-77
2023/05/04 11:30:20;;;;;;;;;5.00;4.00;;;;;17.15;38.63;99121.81;4957847;28;102954;-77
2023/05/04 11:32:52;;;;;;;;;5.00;5.00;;;;;16.97;37.19;99117.22;4965414;28;101785;-76